Pink Coral — 9HPY9 — position and weather

sailwx.info

Track history (hours):
 
Tides and Currents Weather Stations Pressure Air Temp Water Temp Dewpoint Dewpoint Depression Visibility Wind Speed Wind Dir Waves Ship Positions

Pink Coral

Last reported at 2016-Dec-06 09:33 UTC. Time now 2016-Dec-06 21:49 UTC.
Position N 48°20' W 006°17'.

Length 183 m; draft 12.4 m.

Type: Ship (hazmat cat A). MMSI: 249344000.

Date/timePositionNaut miles runAvg speedWind from/ knotsBaromVisibWave heightAir tempDewpointWater temp
2016-Dec-06 09:33N 48°20' W 006°17'1212.3
2016-Dec-06 08:33N 48°31' W 006°08'1211.8
2016-Dec-06 07:33N 48°42' W 006°00'1211.5
2016-Dec-06 06:33N 48°52' W 005°51'1111.3
2016-Dec-06 05:33N 48°59' W 005°38'1110.7
2016-Dec-06 04:33N 49°04' W 005°24'10 9.7
2016-Dec-06 03:33N 49°09' W 005°11'1313.1
2016-Dec-06 02:33N 49°16' W 004°54'1313.3
2016-Dec-06 01:33N 49°22' W 004°36'3812.6
2016-Dec-05 22:31N 49°42' W 003°45'1111.7
2016-Dec-05 21:33N 49°47' W 003°30'1211.6
2016-Dec-05 20:34N 49°53' W 003°14'1212.4
2016-Dec-05 19:34N 49°59' W 002°58'1413.6
2016-Dec-05 18:33N 50°03' W 002°37'1515.0
2016-Dec-05 17:32N 50°08' W 002°15'1515.7
2016-Dec-05 16:33N 50°12' W 001°52'1515.1
2016-Dec-05 15:34N 50°16' W 001°29'1413.9
2016-Dec-05 14:34N 50°19' W 001°08'1412.3
2016-Dec-05 13:23N 50°24' W 000°46'1111.0
2016-Dec-05 12:21N 50°27' W 000°29'911.1
2016-Dec-05 11:33N 50°29' W 000°16'1211.5
2016-Dec-05 10:30N 50°32' E 000°03'1212.3
2016-Dec-05 09:30N 50°36' E 000°21'3013.5
2016-Dec-05 07:14N 50°51' E 001°03'913.2
2016-Dec-05 06:33N 50°57' E 001°14'1212.3
2016-Dec-05 05:33N 51°05' E 001°29'1111.1
2016-Dec-05 04:33N 51°12' E 001°43'1110.9
2016-Dec-05 03:34N 51°21' E 001°51'1211.6
2016-Dec-05 02:33N 51°32' E 001°60'1313.0
2016-Dec-05 01:33N 51°41' E 002°15'1413.8
2016-Dec-05 00:32N 51°51' E 002°31'1313.4
2016-Dec-04 23:33N 52°02' E 002°41'1413.9
2016-Dec-04 22:33N 52°16' E 002°43'2813.0
2016-Dec-04 20:23N 52°41' E 003°04'1112.2
2016-Dec-04 19:30N 52°51' E 003°12'1111.7
2016-Dec-04 18:33N 53°01' E 003°19'1211.6
2016-Dec-04 17:32N 53°12' E 003°25'16012.3
2016-Dec-04 04:32N 55°13' E 006°25'1212.6
2016-Dec-04 03:33N 55°24' E 006°34'18612.3
2016-Dec-03 12:26N 57°52' E 009°59'1112.4
2016-Dec-03 11:33N 57°57' E 010°16'1212.1
2016-Dec-03 10:33N 58°03' E 010°36'1212.3
2016-Dec-03 09:32N 58°10' E 010°56'1211.8
2016-Dec-03 08:33N 58°16' E 011°15'8 7.9
2016-Dec-03 07:33N 58°21' E 011°26'0 0.0
2016-Dec-01 15:14N 58°21' E 011°26'1 1.4
2016-Dec-01 14:33N 58°21' E 011°24'1010.1
2016-Dec-01 13:33N 58°14' E 011°10'4 4.4
2016-Dec-01 12:33N 58°17' E 011°03'2 2.2
2016-Dec-01 11:33N 58°15' E 011°01'2 1.9
2016-Dec-01 10:33N 58°13' E 010°59'3 2.6
2016-Dec-01 09:33N 58°13' E 011°04'2 1.8
2016-Dec-01 08:33N 58°11' E 011°02'9 8.7
2016-Dec-01 07:33N 58°07' E 010°48'1413.7
2016-Dec-01 06:33N 57°59' E 010°26'42612.0
2016-Nov-29 19:13N 53°40' E 000°25'6 8.4
2016-Nov-29 18:33N 53°36' E 000°19'9 9.1
2016-Nov-29 17:33N 53°35' E 000°04'9 8.9
2016-Nov-29 16:33N 53°38' W 000°10'0 0.0
2016-Nov-29 15:33N 53°38' W 000°10'0 0.0
2016-Nov-29 14:33N 53°38' W 000°10'0 0.0
2016-Nov-29 13:33N 53°38' W 000°10'0 0.0
2016-Nov-29 12:33N 53°38' W 000°10'0 0.0
2016-Nov-29 11:33N 53°38' W 000°10'0 0.0
2016-Nov-29 10:33N 53°38' W 000°10'0 0.0
2016-Nov-29 09:33N 53°38' W 000°10'0 0.0
2016-Nov-29 08:33N 53°38' W 000°10'0 0.0
2016-Nov-29 07:33N 53°38' W 000°10'0 0.0
2016-Nov-29 06:33N 53°38' W 000°10'0 0.0
2016-Nov-29 05:33N 53°38' W 000°10'0 0.0
2016-Nov-29 04:33N 53°38' W 000°10'0 0.0
2016-Nov-29 03:33N 53°38' W 000°10'0 0.0
2016-Nov-29 02:33N 53°38' W 000°10'0 0.0
2016-Nov-29 01:33N 53°38' W 000°10'0 0.0
2016-Nov-29 00:33N 53°38' W 000°10'0 0.0
2016-Nov-28 23:33N 53°38' W 000°10'0 0.0
2016-Nov-28 22:30N 53°38' W 000°10'0 0.0
2016-Nov-28 21:30N 53°38' W 000°10'0 0.0
2016-Nov-28 20:33N 53°38' W 000°10'0 0.0
2016-Nov-28 19:33N 53°38' W 000°10'0 0.0
2016-Nov-28 18:33N 53°38' W 000°10'0 0.0
2016-Nov-28 17:33N 53°38' W 000°10'0 0.0
2016-Nov-28 16:33N 53°38' W 000°10'0 0.0
2016-Nov-28 15:33N 53°38' W 000°10'0 0.0
2016-Nov-28 14:33N 53°38' W 000°10'0 0.0
2016-Nov-28 13:33N 53°38' W 000°10'0 0.0
2016-Nov-28 12:33N 53°38' W 000°10'0 0.0
2016-Nov-28 11:33N 53°38' W 000°10'0 0.0
2016-Nov-28 10:33N 53°38' W 000°10'0 0.0
2016-Nov-28 09:30N 53°38' W 000°10'0 0.0
2016-Nov-28 08:33N 53°38' W 000°10'0 0.0
2016-Nov-28 07:33N 53°38' W 000°10'0 0.0
2016-Nov-28 06:33N 53°38' W 000°10'0 0.0
2016-Nov-28 05:33N 53°38' W 000°10'2 2.5
2016-Nov-28 04:33N 53°37' W 000°06'8 8.4
2016-Nov-28 03:33N 53°34' E 000°07'12 8.7
2016-Nov-28 02:13N 53°40' E 000°24'5 0.1
2016-Nov-26 12:15N 53°45' E 000°27'  
Track history (hours):
 
Tides and Currents Weather Stations Pressure Air Temp Water Temp Dewpoint Dewpoint Depression Visibility Wind Speed Wind Dir Waves Ship Positions

Pink Coral

Last reported at 2016-Dec-06 09:33 UTC. Time now 2016-Dec-06 21:49 UTC.
Position N 48°20' W 006°17'.

Length 183 m; draft 12.4 m.

Type: Ship (hazmat cat A). MMSI: 249344000.

Date/timePositionNaut miles runAvg speedWind from/ knotsBaromVisibWave heightAir tempDewpointWater temp
2016-Dec-06 09:33N 48°20' W 006°17'1212.3
2016-Dec-06 08:33N 48°31' W 006°08'1211.8
2016-Dec-06 07:33N 48°42' W 006°00'1211.5
2016-Dec-06 06:33N 48°52' W 005°51'1111.3
2016-Dec-06 05:33N 48°59' W 005°38'1110.7
2016-Dec-06 04:33N 49°04' W 005°24'10 9.7
2016-Dec-06 03:33N 49°09' W 005°11'1313.1
2016-Dec-06 02:33N 49°16' W 004°54'1313.3
2016-Dec-06 01:33N 49°22' W 004°36'3812.6
2016-Dec-05 22:31N 49°42' W 003°45'1111.7
2016-Dec-05 21:33N 49°47' W 003°30'1211.6
2016-Dec-05 20:34N 49°53' W 003°14'1212.4
2016-Dec-05 19:34N 49°59' W 002°58'1413.6
2016-Dec-05 18:33N 50°03' W 002°37'1515.0
2016-Dec-05 17:32N 50°08' W 002°15'1515.7
2016-Dec-05 16:33N 50°12' W 001°52'1515.1
2016-Dec-05 15:34N 50°16' W 001°29'1413.9
2016-Dec-05 14:34N 50°19' W 001°08'1412.3
2016-Dec-05 13:23N 50°24' W 000°46'1111.0
2016-Dec-05 12:21N 50°27' W 000°29'911.1
2016-Dec-05 11:33N 50°29' W 000°16'1211.5
2016-Dec-05 10:30N 50°32' E 000°03'1212.3
2016-Dec-05 09:30N 50°36' E 000°21'3013.5
2016-Dec-05 07:14N 50°51' E 001°03'913.2
2016-Dec-05 06:33N 50°57' E 001°14'1212.3
2016-Dec-05 05:33N 51°05' E 001°29'1111.1
2016-Dec-05 04:33N 51°12' E 001°43'1110.9
2016-Dec-05 03:34N 51°21' E 001°51'1211.6
2016-Dec-05 02:33N 51°32' E 001°60'1313.0
2016-Dec-05 01:33N 51°41' E 002°15'1413.8
2016-Dec-05 00:32N 51°51' E 002°31'1313.4
2016-Dec-04 23:33N 52°02' E 002°41'1413.9
2016-Dec-04 22:33N 52°16' E 002°43'2813.0
2016-Dec-04 20:23N 52°41' E 003°04'1112.2
2016-Dec-04 19:30N 52°51' E 003°12'1111.7
2016-Dec-04 18:33N 53°01' E 003°19'1211.6
2016-Dec-04 17:32N 53°12' E 003°25'16012.3
2016-Dec-04 04:32N 55°13' E 006°25'1212.6
2016-Dec-04 03:33N 55°24' E 006°34'18612.3
2016-Dec-03 12:26N 57°52' E 009°59'1112.4
2016-Dec-03 11:33N 57°57' E 010°16'1212.1
2016-Dec-03 10:33N 58°03' E 010°36'1212.3
2016-Dec-03 09:32N 58°10' E 010°56'1211.8
2016-Dec-03 08:33N 58°16' E 011°15'8 7.9
2016-Dec-03 07:33N 58°21' E 011°26'0 0.0
2016-Dec-01 15:14N 58°21' E 011°26'1 1.4
2016-Dec-01 14:33N 58°21' E 011°24'1010.1
2016-Dec-01 13:33N 58°14' E 011°10'4 4.4
2016-Dec-01 12:33N 58°17' E 011°03'2 2.2
2016-Dec-01 11:33N 58°15' E 011°01'2 1.9
2016-Dec-01 10:33N 58°13' E 010°59'3 2.6
2016-Dec-01 09:33N 58°13' E 011°04'2 1.8
2016-Dec-01 08:33N 58°11' E 011°02'9 8.7
2016-Dec-01 07:33N 58°07' E 010°48'1413.7
2016-Dec-01 06:33N 57°59' E 010°26'42612.0
2016-Nov-29 19:13N 53°40' E 000°25'6 8.4
2016-Nov-29 18:33N 53°36' E 000°19'9 9.1
2016-Nov-29 17:33N 53°35' E 000°04'9 8.9
2016-Nov-29 16:33N 53°38' W 000°10'0 0.0
2016-Nov-29 15:33N 53°38' W 000°10'0 0.0
2016-Nov-29 14:33N 53°38' W 000°10'0 0.0
2016-Nov-29 13:33N 53°38' W 000°10'0 0.0
2016-Nov-29 12:33N 53°38' W 000°10'0 0.0
2016-Nov-29 11:33N 53°38' W 000°10'0 0.0
2016-Nov-29 10:33N 53°38' W 000°10'0 0.0
2016-Nov-29 09:33N 53°38' W 000°10'0 0.0
2016-Nov-29 08:33N 53°38' W 000°10'0 0.0
2016-Nov-29 07:33N 53°38' W 000°10'0 0.0
2016-Nov-29 06:33N 53°38' W 000°10'0 0.0
2016-Nov-29 05:33N 53°38' W 000°10'0 0.0
2016-Nov-29 04:33N 53°38' W 000°10'0 0.0
2016-Nov-29 03:33N 53°38' W 000°10'0 0.0
2016-Nov-29 02:33N 53°38' W 000°10'0 0.0
2016-Nov-29 01:33N 53°38' W 000°10'0 0.0
2016-Nov-29 00:33N 53°38' W 000°10'0 0.0
2016-Nov-28 23:33N 53°38' W 000°10'0 0.0
2016-Nov-28 22:30N 53°38' W 000°10'0 0.0
2016-Nov-28 21:30N 53°38' W 000°10'0 0.0
2016-Nov-28 20:33N 53°38' W 000°10'0 0.0
2016-Nov-28 19:33N 53°38' W 000°10'0 0.0
2016-Nov-28 18:33N 53°38' W 000°10'0 0.0
2016-Nov-28 17:33N 53°38' W 000°10'0 0.0
2016-Nov-28 16:33N 53°38' W 000°10'0 0.0
2016-Nov-28 15:33N 53°38' W 000°10'0 0.0
2016-Nov-28 14:33N 53°38' W 000°10'0 0.0
2016-Nov-28 13:33N 53°38' W 000°10'0 0.0
2016-Nov-28 12:33N 53°38' W 000°10'0 0.0
2016-Nov-28 11:33N 53°38' W 000°10'0 0.0
2016-Nov-28 10:33N 53°38' W 000°10'0 0.0
2016-Nov-28 09:30N 53°38' W 000°10'0 0.0
2016-Nov-28 08:33N 53°38' W 000°10'0 0.0
2016-Nov-28 07:33N 53°38' W 000°10'0 0.0
2016-Nov-28 06:33N 53°38' W 000°10'0 0.0
2016-Nov-28 05:33N 53°38' W 000°10'2 2.5
2016-Nov-28 04:33N 53°37' W 000°06'8 8.4
2016-Nov-28 03:33N 53°34' E 000°07'12 8.7
2016-Nov-28 02:13N 53°40' E 000°24'5 0.1
2016-Nov-26 12:15N 53°45' E 000°27'  

Dump ship's entire track history